PWSweather.com
Personal Weather Stations
Station Observations
SWHWX01
St AppolinardFR 38160

St AppolinardFR 38160

Lat: 45.191, Lon: 5.268

Elevation: 1460

Station Type: Davis Vantage Pro2 Plus

www.sweetwebhome.com/?show=wxindex

High Low Average
Temperature 83.9°F28.8°C 68.4°F20.2°C 76.1°F24.5°C
Dew Point 61.6°F16.4°C 54.0°F12.2°C 58.0°F14.4°C
Winds 10.8 mph 17.4 kmh Calm Calm 4.0 mph SW6.4 kmh SW
Wind Gusts 22.0 mph35.4 kmh -- 8.0 mph12.9 kmh
Humidity 66% 41% 54%
Pressure 30.10 in1019.3 mb 30.02 in1016.6 mb -
Precipitation 0.00 in0.0 mm - -
Hour Temp Dew Point Humidity Winds Wind Gusts Pressure Precip Precip Rate Daily Precip Total
12:00 AM 72.7°F22.6°C 57.5°F14.2°C 59% 1.9 mph SW3.1 kmh SW 2.0 mph3.2 kmh 30.08 in1018.6 mb - 0.00 in0.0 mm 0.00 in0.0 mm
12:30 AM 72.2°F22.3°C 57.5°F14.2°C 60% 1.5 mph SW2.4 kmh SW 4.0 mph6.4 kmh 30.07 in1018.3 mb - 0.00 in0.0 mm 0.00 in0.0 mm
01:00 AM 71.7°F22.1°C 57.5°F14.2°C 61% 3.0 mph SW4.8 kmh SW 4.0 mph6.4 kmh 30.07 in1018.3 mb - 0.00 in0.0 mm 0.00 in0.0 mm
01:30 AM 71.5°F21.9°C 57.3°F14.1°C 61% 3.3 mph SW5.3 kmh SW 5.0 mph8.0 kmh 30.07 in1018.3 mb - 0.00 in0.0 mm 0.00 in0.0 mm
02:00 AM 70.8°F21.6°C 57.1°F13.9°C 62% 1.8 mph SW2.9 kmh SW 3.0 mph4.8 kmh 30.07 in1018.3 mb - 0.00 in0.0 mm 0.00 in0.0 mm
02:30 AM 70.5°F21.4°C 56.9°F13.8°C 62% 2.6 mph SW4.2 kmh SW 4.0 mph6.4 kmh 30.07 in1018.3 mb - 0.00 in0.0 mm 0.00 in0.0 mm
03:00 AM 70.1°F21.2°C 56.5°F13.6°C 62% 3.3 mph SW5.3 kmh SW 5.0 mph8.0 kmh 30.08 in1018.6 mb - 0.00 in0.0 mm 0.00 in0.0 mm
03:30 AM 69.7°F20.9°C 56.5°F13.6°C 63% 2.6 mph SW4.2 kmh SW 4.0 mph6.4 kmh 30.08 in1018.6 mb - 0.00 in0.0 mm 0.00 in0.0 mm
04:00 AM 69.3°F20.7°C 56.2°F13.4°C 63% 1.3 mph SW2.1 kmh SW 2.0 mph3.2 kmh 30.08 in1018.6 mb - 0.00 in0.0 mm 0.00 in0.0 mm
04:30 AM 68.9°F20.5°C 56.2°F13.4°C 64% 1.1 mph SW1.8 kmh SW 4.0 mph6.4 kmh 30.08 in1018.6 mb - 0.00 in0.0 mm 0.00 in0.0 mm
05:00 AM 68.6°F20.3°C 56.4°F13.6°C 65% 0.3 mph SW0.5 kmh SW 1.0 mph1.6 kmh 30.08 in1018.6 mb - 0.00 in0.0 mm 0.00 in0.0 mm
05:30 AM 68.4°F20.2°C 56.2°F13.4°C 65% 1.9 mph SW3.1 kmh SW 3.0 mph4.8 kmh 30.09 in1019.0 mb - 0.00 in0.0 mm 0.00 in0.0 mm
06:00 AM 68.6°F20.3°C 56.8°F13.8°C 66% 0.1 mph SW0.2 kmh SW 1.0 mph1.6 kmh 30.09 in1019.0 mb - 0.00 in0.0 mm 0.00 in0.0 mm
06:30 AM 70.6°F21.4°C 58.7°F14.8°C 66% Calm Calm -- 30.09 in1019.0 mb - 0.00 in0.0 mm 0.00 in0.0 mm
07:00 AM 71.8°F22.1°C 59.4°F15.2°C 65% 0.3 mph SW0.5 kmh SW 1.0 mph1.6 kmh 30.10 in1019.3 mb - 0.00 in0.0 mm 0.00 in0.0 mm
07:30 AM 71.5°F21.9°C 59.1°F15.1°C 65% 0.4 mph SW0.6 kmh SW 6.0 mph9.7 kmh 30.10 in1019.3 mb - 0.00 in0.0 mm 0.00 in0.0 mm
08:00 AM 72.2°F22.3°C 59.8°F15.4°C 65% 1.9 mph SW3.1 kmh SW 3.0 mph4.8 kmh 30.10 in1019.3 mb - 0.00 in0.0 mm 0.00 in0.0 mm
08:30 AM 73.5°F23.1°C 60.6°F15.9°C 64% 1.7 mph SW2.7 kmh SW 3.0 mph4.8 kmh 30.10 in1019.3 mb - 0.00 in0.0 mm 0.00 in0.0 mm
09:00 AM 74.1°F23.4°C 60.2°F15.7°C 62% 3.9 mph SW6.3 kmh SW 7.0 mph11.3 kmh 30.10 in1019.3 mb - 0.00 in0.0 mm 0.00 in0.0 mm
09:30 AM 76.1°F24.5°C 61.6°F16.4°C 61% 1.1 mph S1.8 kmh S 3.0 mph4.8 kmh 30.09 in1019.0 mb - 0.00 in0.0 mm 0.00 in0.0 mm
10:00 AM 77.6°F25.3°C 61.2°F16.2°C 57% 2.4 mph SSW3.9 kmh SSW 3.0 mph4.8 kmh 30.09 in1019.0 mb - 0.00 in0.0 mm 0.00 in0.0 mm
10:30 AM 78.8°F26.0°C 60.2°F15.7°C 53% 4.3 mph SSW6.9 kmh SSW 6.0 mph9.7 kmh 30.08 in1018.6 mb - 0.00 in0.0 mm 0.00 in0.0 mm
11:00 AM 79.1°F26.2°C 59.9°F15.5°C 52% 8.1 mph SSW13.0 kmh SSW 14.0 mph22.5 kmh 30.08 in1018.6 mb - 0.00 in0.0 mm 0.00 in0.0 mm
11:30 AM 79.5°F26.4°C 60.3°F15.7°C 52% 6.8 mph SW10.9 kmh SW 14.0 mph22.5 kmh 30.08 in1018.6 mb - 0.00 in0.0 mm 0.00 in0.0 mm
12:00 PM 80.7°F27.1°C 60.3°F15.7°C 50% 7.2 mph WSW11.6 kmh WSW 14.0 mph22.5 kmh 30.07 in1018.3 mb - 0.00 in0.0 mm 0.00 in0.0 mm
12:30 PM 81.2°F27.3°C 59.6°F15.3°C 48% 6.2 mph SW10.0 kmh SW 10.0 mph16.1 kmh 30.07 in1018.3 mb - 0.00 in0.0 mm 0.00 in0.0 mm
01:00 PM 81.6°F27.6°C 59.4°F15.2°C 47% 10.8 mph SW17.4 kmh SW 17.0 mph27.4 kmh 30.06 in1017.9 mb - 0.00 in0.0 mm 0.00 in0.0 mm
01:30 PM 82.7°F28.2°C 61.0°F16.1°C 48% 3.2 mph SW5.1 kmh SW 12.0 mph19.3 kmh 30.05 in1017.6 mb - 0.00 in0.0 mm 0.00 in0.0 mm
02:00 PM 83.2°F28.4°C 60.2°F15.7°C 46% 8.5 mph SW13.7 kmh SW 22.0 mph35.4 kmh 30.05 in1017.6 mb - 0.00 in0.0 mm 0.00 in0.0 mm
02:30 PM 83.9°F28.8°C 60.3°F15.7°C 45% 6.8 mph WSW10.9 kmh WSW 11.0 mph17.7 kmh 30.04 in1017.3 mb - 0.00 in0.0 mm 0.00 in0.0 mm
03:00 PM 83.9°F28.8°C 60.3°F15.7°C 45% 5.8 mph SW9.3 kmh SW 11.0 mph17.7 kmh 30.04 in1017.3 mb - 0.00 in0.0 mm 0.00 in0.0 mm
03:30 PM 83.7°F28.7°C 59.5°F15.3°C 44% 7.3 mph S11.7 kmh S 12.0 mph19.3 kmh 30.03 in1016.9 mb - 0.00 in0.0 mm 0.00 in0.0 mm
04:00 PM 83.9°F28.8°C 59.6°F15.3°C 44% 5.6 mph SW9.0 kmh SW 9.0 mph14.5 kmh 30.03 in1016.9 mb - 0.00 in0.0 mm 0.00 in0.0 mm
04:30 PM 83.8°F28.8°C 58.9°F14.9°C 43% 6.3 mph SW10.1 kmh SW 10.0 mph16.1 kmh 30.02 in1016.6 mb - 0.00 in0.0 mm 0.00 in0.0 mm
05:00 PM 83.8°F28.8°C 58.3°F14.6°C 42% 8.3 mph WSW13.4 kmh WSW 20.0 mph32.2 kmh 30.02 in1016.6 mb - 0.00 in0.0 mm 0.00 in0.0 mm
05:30 PM 83.2°F28.4°C 57.7°F14.3°C 42% 7.4 mph SW11.9 kmh SW 15.0 mph24.1 kmh 30.02 in1016.6 mb - 0.00 in0.0 mm 0.00 in0.0 mm
06:00 PM 82.6°F28.1°C 56.5°F13.6°C 41% 7.8 mph W12.6 kmh W 13.0 mph20.9 kmh 30.02 in1016.6 mb - 0.00 in0.0 mm 0.00 in0.0 mm
06:30 PM 81.8°F27.7°C 56.5°F13.6°C 42% 8.9 mph WSW14.3 kmh WSW 15.0 mph24.1 kmh 30.02 in1016.6 mb - 0.00 in0.0 mm 0.00 in0.0 mm
07:00 PM 80.4°F26.9°C 55.9°F13.3°C 43% 8.1 mph WSW13.0 kmh WSW 12.0 mph19.3 kmh 30.02 in1016.6 mb - 0.00 in0.0 mm 0.00 in0.0 mm
07:30 PM 79.1°F26.2°C 55.9°F13.3°C 45% 9.4 mph SW15.1 kmh SW 11.0 mph17.7 kmh 30.02 in1016.6 mb - 0.00 in0.0 mm 0.00 in0.0 mm
08:00 PM 77.6°F25.3°C 55.8°F13.2°C 47% 4.7 mph SW7.6 kmh SW 14.0 mph22.5 kmh 30.03 in1016.9 mb - 0.00 in0.0 mm 0.00 in0.0 mm
08:30 PM 76.7°F24.8°C 55.5°F13.1°C 48% 5.7 mph SW9.2 kmh SW 7.0 mph11.3 kmh 30.03 in1016.9 mb - 0.00 in0.0 mm 0.00 in0.0 mm
09:00 PM 75.8°F24.3°C 56.4°F13.6°C 51% 3.0 mph SW4.8 kmh SW 6.0 mph9.7 kmh 30.04 in1017.3 mb - 0.00 in0.0 mm 0.00 in0.0 mm
09:30 PM 74.8°F23.8°C 56.0°F13.3°C 52% 5.3 mph SW8.5 kmh SW 8.0 mph12.9 kmh 30.05 in1017.6 mb - 0.00 in0.0 mm 0.00 in0.0 mm
10:00 PM 73.7°F23.2°C 56.0°F13.3°C 54% 5.7 mph SW9.2 kmh SW 10.0 mph16.1 kmh 30.06 in1017.9 mb - 0.00 in0.0 mm 0.00 in0.0 mm
10:30 PM 73.0°F22.8°C 54.9°F12.7°C 53% 3.4 mph SW5.5 kmh SW 5.0 mph8.0 kmh 30.06 in1017.9 mb - 0.00 in0.0 mm 0.00 in0.0 mm
11:00 PM 72.6°F22.6°C 54.5°F12.5°C 53% 3.9 mph SW6.3 kmh SW 6.0 mph9.7 kmh 30.07 in1018.3 mb - 0.00 in0.0 mm 0.00 in0.0 mm
11:30 PM 72.1°F22.3°C 54.0°F12.2°C 53% 4.8 mph WSW7.7 kmh WSW 8.0 mph12.9 kmh 30.07 in1018.3 mb - 0.00 in0.0 mm 0.00 in0.0 mm